Scroll down
FLIGHT INFORMATION
Sunwing Airlines

SWG2201

At Arrival Gate

CYYT
 BIRK
DATE: 2020-10-04
GATE: G3
GATE DEPARTURE: 15:54
TAKEOFF: 16:07
DATE: 2020-10-04
GATE:  -
LANDING: 19:28
GATE ARRIVAL: 19:34
FLIGHT DATA
Speed: 
474 kts
Altitude: 
35,072 ft
Stage Length: 
1,409.2 nm
Block Time: 
3.7 hrs
Flight Time: 
3.4 hrs
Fuel Used: 
21,256 lb
Cleared Route: CYYT JOOPY 5150N 5545N 5845N 6230N ELREX ELDIS BIRK
TRACK DATA
50,000 ft 1,000 kts
AIRCRAFT INFO AND CUMULATIVE STATS
Aircraft Type: 
B738SSW
Registration: 
SELCAL: 
MSN/LN: 
39438 / 4816
Operator: 
Total Flights: 
5
Total Block Time: 
10.9 hrs
Total Flight Time: 
9.8 hrs
Total Fuel Time: 
62,605 lb
DATALINK LOG | Newest first | Current as of: 2020-11-29 01:56:53
LABEL SEQUENCE CONTENT Dn/Up
QD341319:34 18.7▼ Dn
QC272719:28▼ Dn
2U5917BIRK 041800Z 25006KT 9999 FEW024 BKN029 07/01 Q1004▲ Up
2S5758BIRK▼ Dn
GA3448ADVANCED GATE ASSIGNMENTS NOT YET AVAILABLE AT THIS AIRPORT▲ Up
GR3438BIRK 19:19 YP/UM 00/00 WCHR/S/C 00/00/00 HI-VAL NO DIPL/VIP NO▼ Dn
5U5214BIRK 042124Z 30008KT 9999 -SHRA SCT020 BKN040 TX07/0415Z TN02/0504Z 07/03 Q1004▲ Up
5S2832BIRK▼ Dn
QB075016:07▼ Dn
QA540015:54 40▼ Dn
A34702CLEARED TO BIRK VIA JOOPY 51N050W 55N045W 58N045W 62N030W ELREX ELDIS. SQUAWK 7333.▲ Up
Q04451[LINK ACK]▲ Up
Q04451[LINK TEST]▼ Dn


AIRCRAFT HISTORY
FLIGHT DATE FLIGHT NO. ORIGIN DESTINATION CLEARED ROUTE BLOCK TIME FLIGHT TIME FUEL USED PILOT
2020-10-07SWG2201BIRK EGLL BIRK METIL NASBU MIKLA ING ROSTI LARUX MY MATIK BESGA MODGO STN ORSUM GOW FENIK LUSIV NAVSO BEBNI DCS LAKEY UTUXA HON DTY WOBUN BUZAD BPK LAM BEMID IPKUS EGLL3.1 hrs2.8 hrs16,822 lbRoberto Stopnicki
2020-10-04SWG2201CYYT BIRK CYYT JOOPY 5150N 5545N 5845N 6230N ELREX ELDIS BIRK3.7 hrs3.4 hrs21,256 lbRoberto Stopnicki
2020-10-03SWG2201CYUL CYYT CYUL KEBGO RABIK MOBAL ANTOV YQM TAGRA TIGOR CYYT2.2 hrs2 hrs12,076 lbRoberto Stopnicki
2020-05-27SWG527CYYZ CYUL CYYZ MIGLO CYUL1.1 hrs0.9 hrs6,096 lb-HIDDEN-
2019-11-21SWG1121CYUL CYYZ 1.2 hrs0.9 hrs6,356 lb-HIDDEN-